sensor_id;sensor_type;location;lat;lon;timestamp;P1;durP1;ratioP1;P2;durP2;ratioP2
48042;SDS011;33988;47.992;8.820;2022-09-27T00:01:34;0.50;;;0.50;;
48042;SDS011;33988;47.992;8.820;2022-09-27T00:04:01;0.45;;;0.32;;
48042;SDS011;33988;47.992;8.820;2022-09-27T00:06:28;0.65;;;0.60;;
48042;SDS011;33988;47.992;8.820;2022-09-27T00:09:08;0.60;;;0.45;;
48042;SDS011;33988;47.992;8.820;2022-09-27T00:11:37;0.35;;;0.35;;
48042;SDS011;33988;47.992;8.820;2022-09-27T00:14:10;0.55;;;0.40;;
48042;SDS011;33988;47.992;8.820;2022-09-27T00:16:39;0.67;;;0.50;;
48042;SDS011;33988;47.992;8.820;2022-09-27T00:19:11;0.40;;;0.40;;
48042;SDS011;33988;47.992;8.820;2022-09-27T00:21:44;0.60;;;0.50;;
48042;SDS011;33988;47.992;8.820;2022-09-27T00:24:12;0.43;;;0.43;;
48042;SDS011;33988;47.992;8.820;2022-09-27T00:26:46;0.63;;;0.50;;
48042;SDS011;33988;47.992;8.820;2022-09-27T00:29:14;0.50;;;0.50;;
48042;SDS011;33988;47.992;8.820;2022-09-27T00:31:43;0.50;;;0.50;;
48042;SDS011;33988;47.992;8.820;2022-09-27T00:34:20;0.95;;;0.60;;
48042;SDS011;33988;47.992;8.820;2022-09-27T00:36:52;1.73;;;0.40;;
48042;SDS011;33988;47.992;8.820;2022-09-27T00:39:20;0.95;;;0.55;;
48042;SDS011;33988;47.992;8.820;2022-09-27T00:41:47;0.50;;;0.50;;
48042;SDS011;33988;47.992;8.820;2022-09-27T00:47:02;0.50;;;0.50;;
48042;SDS011;33988;47.992;8.820;2022-09-27T00:50:07;2.25;;;0.98;;
48042;SDS011;33988;47.992;8.820;2022-09-27T00:52:50;0.50;;;0.50;;
48042;SDS011;33988;47.992;8.820;2022-09-27T00:58:37;0.40;;;0.40;;
48042;SDS011;33988;47.992;8.820;2022-09-27T01:01:12;0.43;;;0.43;;
48042;SDS011;33988;47.992;8.820;2022-09-27T01:06:15;0.52;;;0.50;;
48042;SDS011;33988;47.992;8.820;2022-09-27T01:08:48;0.65;;;0.63;;
48042;SDS011;33988;47.992;8.820;2022-09-27T01:22:25;0.50;;;0.50;;
48042;SDS011;33988;47.992;8.820;2022-09-27T01:37:26;0.98;;;0.40;;
48042;SDS011;33988;47.992;8.820;2022-09-27T01:43:35;0.50;;;0.50;;
48042;SDS011;33988;47.992;8.820;2022-09-27T01:46:22;0.80;;;0.50;;
48042;SDS011;33988;47.992;8.820;2022-09-27T01:48:56;0.43;;;0.40;;
48042;SDS011;33988;47.992;8.820;2022-09-27T01:53:58;0.43;;;0.40;;
48042;SDS011;33988;47.992;8.820;2022-09-27T01:59:13;0.47;;;0.47;;
48042;SDS011;33988;47.992;8.820;2022-09-27T02:01:46;0.60;;;0.35;;
48042;SDS011;33988;47.992;8.820;2022-09-27T02:04:17;0.20;;;0.15;;
48042;SDS011;33988;47.992;8.820;2022-09-27T02:06:55;0.50;;;0.30;;
48042;SDS011;33988;47.992;8.820;2022-09-27T02:09:55;0.30;;;0.30;;
48042;SDS011;33988;47.992;8.820;2022-09-27T02:12:55;0.65;;;0.25;;
48042;SDS011;33988;47.992;8.820;2022-09-27T02:15:47;0.38;;;0.32;;
48042;SDS011;33988;47.992;8.820;2022-09-27T02:18:27;0.30;;;0.30;;
48042;SDS011;33988;47.992;8.820;2022-09-27T02:21:04;0.30;;;0.30;;
48042;SDS011;33988;47.992;8.820;2022-09-27T02:23:44;1.75;;;0.20;;
48042;SDS011;33988;47.992;8.820;2022-09-27T02:28:56;0.77;;;0.30;;
48042;SDS011;33988;47.992;8.820;2022-09-27T02:31:43;0.32;;;0.30;;
48042;SDS011;33988;47.992;8.820;2022-09-27T02:34:21;1.85;;;0.30;;
48042;SDS011;33988;47.992;8.820;2022-09-27T02:36:52;0.35;;;0.28;;
48042;SDS011;33988;47.992;8.820;2022-09-27T02:39:20;0.38;;;0.32;;
48042;SDS011;33988;47.992;8.820;2022-09-27T02:41:50;3.30;;;0.20;;
48042;SDS011;33988;47.992;8.820;2022-09-27T02:44:17;0.28;;;0.20;;
48042;SDS011;33988;47.992;8.820;2022-09-27T03:03:51;1.05;;;0.30;;
48042;SDS011;33988;47.992;8.820;2022-09-27T03:06:55;0.10;;;0.10;;
48042;SDS011;33988;47.992;8.820;2022-09-27T03:09:27;0.30;;;0.20;;
48042;SDS011;33988;47.992;8.820;2022-09-27T03:12:08;0.30;;;0.30;;
48042;SDS011;33988;47.992;8.820;2022-09-27T03:14:35;0.98;;;0.20;;
48042;SDS011;33988;47.992;8.820;2022-09-27T03:17:04;1.55;;;0.20;;
48042;SDS011;33988;47.992;8.820;2022-09-27T03:19:34;0.30;;;0.20;;
48042;SDS011;33988;47.992;8.820;2022-09-27T03:24:30;0.43;;;0.10;;
48042;SDS011;33988;47.992;8.820;2022-09-27T03:26:59;0.50;;;0.30;;
48042;SDS011;33988;47.992;8.820;2022-09-27T03:29:27;0.47;;;0.20;;
48042;SDS011;33988;47.992;8.820;2022-09-27T03:31:54;0.98;;;0.30;;
48042;SDS011;33988;47.992;8.820;2022-09-27T03:34:23;0.50;;;0.10;;
48042;SDS011;33988;47.992;8.820;2022-09-27T03:36:50;0.47;;;0.20;;
48042;SDS011;33988;47.992;8.820;2022-09-27T03:39:17;1.20;;;0.10;;
48042;SDS011;33988;47.992;8.820;2022-09-27T03:41:47;0.60;;;0.20;;
48042;SDS011;33988;47.992;8.820;2022-09-27T03:44:14;0.82;;;0.50;;
48042;SDS011;33988;47.992;8.820;2022-09-27T03:46:43;0.20;;;0.20;;
48042;SDS011;33988;47.992;8.820;2022-09-27T03:49:12;0.25;;;0.20;;
48042;SDS011;33988;47.992;8.820;2022-09-27T03:51:41;0.10;;;0.10;;
48042;SDS011;33988;47.992;8.820;2022-09-27T03:54:08;1.95;;;0.20;;
48042;SDS011;33988;47.992;8.820;2022-09-27T03:56:38;0.30;;;0.20;;
48042;SDS011;33988;47.992;8.820;2022-09-27T03:59:07;0.30;;;0.30;;
48042;SDS011;33988;47.992;8.820;2022-09-27T04:01:34;0.17;;;0.17;;
48042;SDS011;33988;47.992;8.820;2022-09-27T04:04:03;0.88;;;0.30;;
48042;SDS011;33988;47.992;8.820;2022-09-27T04:06:36;0.32;;;0.30;;
48042;SDS011;33988;47.992;8.820;2022-09-27T04:09:05;0.82;;;0.45;;
48042;SDS011;33988;47.992;8.820;2022-09-27T04:11:32;0.52;;;0.38;;
48042;SDS011;33988;47.992;8.820;2022-09-27T04:14:02;0.30;;;0.30;;
48042;SDS011;33988;47.992;8.820;2022-09-27T04:16:33;1.55;;;0.47;;
48042;SDS011;33988;47.992;8.820;2022-09-27T04:19:00;2.13;;;0.20;;
48042;SDS011;33988;47.992;8.820;2022-09-27T04:21:28;0.30;;;0.30;;
48042;SDS011;33988;47.992;8.820;2022-09-27T04:23:59;0.73;;;0.40;;
48042;SDS011;33988;47.992;8.820;2022-09-27T04:26:27;0.40;;;0.40;;
48042;SDS011;33988;47.992;8.820;2022-09-27T04:28:56;0.45;;;0.30;;
48042;SDS011;33988;47.992;8.820;2022-09-27T04:31:25;0.30;;;0.30;;
48042;SDS011;33988;47.992;8.820;2022-09-27T04:33:55;0.88;;;0.40;;
48042;SDS011;33988;47.992;8.820;2022-09-27T04:36:22;0.40;;;0.22;;
48042;SDS011;33988;47.992;8.820;2022-09-27T04:39:04;0.82;;;0.40;;
48042;SDS011;33988;47.992;8.820;2022-09-27T04:42:39;0.38;;;0.30;;
48042;SDS011;33988;47.992;8.820;2022-09-27T04:45:06;1.23;;;0.45;;
48042;SDS011;33988;47.992;8.820;2022-09-27T04:47:43;0.85;;;0.30;;
48042;SDS011;33988;47.992;8.820;2022-09-27T04:50:14;0.20;;;0.20;;
48042;SDS011;33988;47.992;8.820;2022-09-27T04:52:42;1.08;;;0.30;;
48042;SDS011;33988;47.992;8.820;2022-09-27T04:55:09;0.85;;;0.40;;
48042;SDS011;33988;47.992;8.820;2022-09-27T04:57:39;0.38;;;0.30;;
48042;SDS011;33988;47.992;8.820;2022-09-27T05:00:10;1.73;;;0.40;;
48042;SDS011;33988;47.992;8.820;2022-09-27T05:02:43;0.43;;;0.32;;
48042;SDS011;33988;47.992;8.820;2022-09-27T05:05:13;0.50;;;0.20;;
48042;SDS011;33988;47.992;8.820;2022-09-27T05:07:45;0.20;;;0.20;;
48042;SDS011;33988;47.992;8.820;2022-09-27T05:10:12;0.60;;;0.30;;
48042;SDS011;33988;47.992;8.820;2022-09-27T05:12:41;0.13;;;0.13;;
48042;SDS011;33988;47.992;8.820;2022-09-27T05:15:11;0.88;;;0.40;;
48042;SDS011;33988;47.992;8.820;2022-09-27T05:17:38;0.85;;;0.50;;
48042;SDS011;33988;47.992;8.820;2022-09-27T05:20:05;1.40;;;0.32;;
48042;SDS011;33988;47.992;8.820;2022-09-27T05:22:32;0.20;;;0.20;;
48042;SDS011;33988;47.992;8.820;2022-09-27T05:24:59;0.65;;;0.32;;
48042;SDS011;33988;47.992;8.820;2022-09-27T05:27:27;0.20;;;0.20;;
48042;SDS011;33988;47.992;8.820;2022-09-27T05:29:58;0.10;;;0.10;;
48042;SDS011;33988;47.992;8.820;2022-09-27T05:32:28;0.20;;;0.20;;
48042;SDS011;33988;47.992;8.820;2022-09-27T05:34:58;0.55;;;0.40;;
48042;SDS011;33988;47.992;8.820;2022-09-27T05:37:25;0.20;;;0.20;;
48042;SDS011;33988;47.992;8.820;2022-09-27T05:39:54;0.32;;;0.20;;
48042;SDS011;33988;47.992;8.820;2022-09-27T05:42:23;0.40;;;0.30;;
48042;SDS011;33988;47.992;8.820;2022-09-27T05:44:55;0.20;;;0.20;;
48042;SDS011;33988;47.992;8.820;2022-09-27T05:47:25;0.60;;;0.40;;
48042;SDS011;33988;47.992;8.820;2022-09-27T05:49:53;0.32;;;0.30;;
48042;SDS011;33988;47.992;8.820;2022-09-27T05:52:23;1.23;;;0.20;;
48042;SDS011;33988;47.992;8.820;2022-09-27T05:54:52;0.47;;;0.30;;
48042;SDS011;33988;47.992;8.820;2022-09-27T05:57:19;1.55;;;0.43;;
48042;SDS011;33988;47.992;8.820;2022-09-27T05:59:46;0.40;;;0.25;;
48042;SDS011;33988;47.992;8.820;2022-09-27T06:02:15;0.20;;;0.15;;
48042;SDS011;33988;47.992;8.820;2022-09-27T06:04:43;0.20;;;0.20;;
48042;SDS011;33988;47.992;8.820;2022-09-27T06:07:12;0.32;;;0.30;;
48042;SDS011;33988;47.992;8.820;2022-09-27T06:09:45;0.32;;;0.30;;
48042;SDS011;33988;47.992;8.820;2022-09-27T06:12:14;0.22;;;0.20;;
48042;SDS011;33988;47.992;8.820;2022-09-27T06:14:45;0.60;;;0.20;;
48042;SDS011;33988;47.992;8.820;2022-09-27T06:17:13;0.28;;;0.20;;
48042;SDS011;33988;47.992;8.820;2022-09-27T06:19:42;0.55;;;0.38;;
48042;SDS011;33988;47.992;8.820;2022-09-27T06:22:12;0.43;;;0.20;;
48042;SDS011;33988;47.992;8.820;2022-09-27T06:24:42;0.30;;;0.30;;
48042;SDS011;33988;47.992;8.820;2022-09-27T06:27:11;0.32;;;0.32;;
48042;SDS011;33988;47.992;8.820;2022-09-27T06:29:38;0.28;;;0.28;;
48042;SDS011;33988;47.992;8.820;2022-09-27T06:32:05;0.40;;;0.40;;
48042;SDS011;33988;47.992;8.820;2022-09-27T06:34:32;0.25;;;0.25;;
48042;SDS011;33988;47.992;8.820;2022-09-27T06:37:04;0.30;;;0.30;;
48042;SDS011;33988;47.992;8.820;2022-09-27T06:39:33;0.22;;;0.22;;
48042;SDS011;33988;47.992;8.820;2022-09-27T06:42:00;0.60;;;0.28;;
48042;SDS011;33988;47.992;8.820;2022-09-27T06:44:32;0.28;;;0.28;;
48042;SDS011;33988;47.992;8.820;2022-09-27T06:47:04;0.52;;;0.20;;
48042;SDS011;33988;47.992;8.820;2022-09-27T06:49:33;0.20;;;0.20;;
48042;SDS011;33988;47.992;8.820;2022-09-27T06:52:03;1.10;;;0.40;;
48042;SDS011;33988;47.992;8.820;2022-09-27T06:54:34;1.05;;;0.50;;
48042;SDS011;33988;47.992;8.820;2022-09-27T06:57:04;0.30;;;0.30;;
48042;SDS011;33988;47.992;8.820;2022-09-27T06:59:33;0.30;;;0.30;;
48042;SDS011;33988;47.992;8.820;2022-09-27T07:02:19;0.65;;;0.38;;
48042;SDS011;33988;47.992;8.820;2022-09-27T07:04:48;0.50;;;0.40;;
48042;SDS011;33988;47.992;8.820;2022-09-27T07:07:16;1.10;;;0.30;;
48042;SDS011;33988;47.992;8.820;2022-09-27T07:09:43;0.98;;;0.28;;
48042;SDS011;33988;47.992;8.820;2022-09-27T07:12:12;0.40;;;0.40;;
48042;SDS011;33988;47.992;8.820;2022-09-27T07:14:46;0.43;;;0.30;;
48042;SDS011;33988;47.992;8.820;2022-09-27T07:17:15;0.95;;;0.60;;
48042;SDS011;33988;47.992;8.820;2022-09-27T07:19:44;0.30;;;0.30;;
48042;SDS011;33988;47.992;8.820;2022-09-27T07:22:12;0.50;;;0.40;;
48042;SDS011;33988;47.992;8.820;2022-09-27T07:24:42;0.28;;;0.28;;
48042;SDS011;33988;47.992;8.820;2022-09-27T07:29:45;0.50;;;0.50;;
48042;SDS011;33988;47.992;8.820;2022-09-27T07:32:12;0.30;;;0.30;;
48042;SDS011;33988;47.992;8.820;2022-09-27T07:34:41;0.60;;;0.50;;
48042;SDS011;33988;47.992;8.820;2022-09-27T07:37:09;0.52;;;0.40;;
48042;SDS011;33988;47.992;8.820;2022-09-27T07:39:36;0.30;;;0.30;;
48042;SDS011;33988;47.992;8.820;2022-09-27T07:42:05;0.28;;;0.28;;
48042;SDS011;33988;47.992;8.820;2022-09-27T07:44:37;0.90;;;0.40;;
48042;SDS011;33988;47.992;8.820;2022-09-27T07:47:10;0.30;;;0.30;;
48042;SDS011;33988;47.992;8.820;2022-09-27T07:49:39;0.52;;;0.32;;
48042;SDS011;33988;47.992;8.820;2022-09-27T07:52:06;0.40;;;0.38;;
48042;SDS011;33988;47.992;8.820;2022-09-27T07:54:36;1.33;;;0.40;;
48042;SDS011;33988;47.992;8.820;2022-09-27T07:57:03;0.40;;;0.40;;
48042;SDS011;33988;47.992;8.820;2022-09-27T07:59:30;0.60;;;0.28;;
48042;SDS011;33988;47.992;8.820;2022-09-27T08:01:57;0.20;;;0.20;;
48042;SDS011;33988;47.992;8.820;2022-09-27T08:04:24;0.30;;;0.30;;
48042;SDS011;33988;47.992;8.820;2022-09-27T08:06:51;0.63;;;0.40;;
48042;SDS011;33988;47.992;8.820;2022-09-27T08:09:18;0.77;;;0.43;;
48042;SDS011;33988;47.992;8.820;2022-09-27T08:11:45;4.60;;;0.40;;
48042;SDS011;33988;47.992;8.820;2022-09-27T08:14:14;0.30;;;0.30;;
48042;SDS011;33988;47.992;8.820;2022-09-27T08:16:42;0.45;;;0.28;;
48042;SDS011;33988;47.992;8.820;2022-09-27T08:19:11;1.45;;;0.40;;
48042;SDS011;33988;47.992;8.820;2022-09-27T08:21:39;0.30;;;0.30;;
48042;SDS011;33988;47.992;8.820;2022-09-27T08:24:09;0.70;;;0.50;;
48042;SDS011;33988;47.992;8.820;2022-09-27T08:26:36;0.10;;;0.10;;
48042;SDS011;33988;47.992;8.820;2022-09-27T08:29:03;0.20;;;0.20;;
48042;SDS011;33988;47.992;8.820;2022-09-27T08:31:30;0.40;;;0.30;;
48042;SDS011;33988;47.992;8.820;2022-09-27T08:34:01;0.30;;;0.30;;
48042;SDS011;33988;47.992;8.820;2022-09-27T08:36:31;0.30;;;0.30;;
48042;SDS011;33988;47.992;8.820;2022-09-27T08:39:01;0.75;;;0.40;;
48042;SDS011;33988;47.992;8.820;2022-09-27T08:41:41;0.30;;;0.30;;
48042;SDS011;33988;47.992;8.820;2022-09-27T08:47:36;0.68;;;0.40;;
48042;SDS011;33988;47.992;8.820;2022-09-27T08:50:20;0.90;;;0.35;;
48042;SDS011;33988;47.992;8.820;2022-09-27T08:53:06;0.40;;;0.40;;
48042;SDS011;33988;47.992;8.820;2022-09-27T08:56:08;0.40;;;0.40;;
48042;SDS011;33988;47.992;8.820;2022-09-27T08:58:48;2.92;;;0.52;;
48042;SDS011;33988;47.992;8.820;2022-09-27T09:01:40;1.02;;;0.38;;
48042;SDS011;33988;47.992;8.820;2022-09-27T09:04:10;0.30;;;0.30;;
48042;SDS011;33988;47.992;8.820;2022-09-27T09:06:51;0.45;;;0.45;;
48042;SDS011;33988;47.992;8.820;2022-09-27T09:13:22;0.43;;;0.40;;
48042;SDS011;33988;47.992;8.820;2022-09-27T09:35:44;0.40;;;0.40;;
48042;SDS011;33988;47.992;8.820;2022-09-27T09:38:46;0.40;;;0.40;;
48042;SDS011;33988;47.992;8.820;2022-09-27T09:41:30;0.45;;;0.40;;
48042;SDS011;33988;47.992;8.820;2022-09-27T09:47:20;0.35;;;0.35;;
48042;SDS011;33988;47.992;8.820;2022-09-27T09:50:15;1.55;;;0.57;;
48042;SDS011;33988;47.992;8.820;2022-09-27T09:52:49;0.70;;;0.55;;
48042;SDS011;33988;47.992;8.820;2022-09-27T09:55:32;0.60;;;0.52;;
48042;SDS011;33988;47.992;8.820;2022-09-27T09:58:45;0.68;;;0.50;;
48042;SDS011;33988;47.992;8.820;2022-09-27T10:01:07;0.63;;;0.40;;
48042;SDS011;33988;47.992;8.820;2022-09-27T10:03:45;2.80;;;0.68;;
48042;SDS011;33988;47.992;8.820;2022-09-27T10:06:13;0.40;;;0.40;;
48042;SDS011;33988;47.992;8.820;2022-09-27T10:08:42;0.22;;;0.22;;
48042;SDS011;33988;47.992;8.820;2022-09-27T10:11:33;0.75;;;0.50;;
48042;SDS011;33988;47.992;8.820;2022-09-27T10:14:08;0.47;;;0.40;;
48042;SDS011;33988;47.992;8.820;2022-09-27T10:16:43;0.40;;;0.20;;
48042;SDS011;33988;47.992;8.820;2022-09-27T10:19:17;0.60;;;0.22;;
48042;SDS011;33988;47.992;8.820;2022-09-27T10:21:58;1.25;;;0.45;;
48042;SDS011;33988;47.992;8.820;2022-09-27T10:27:37;0.63;;;0.40;;
48042;SDS011;33988;47.992;8.820;2022-09-27T10:30:11;0.77;;;0.30;;
48042;SDS011;33988;47.992;8.820;2022-09-27T10:32:54;0.60;;;0.50;;
48042;SDS011;33988;47.992;8.820;2022-09-27T10:35:44;0.47;;;0.47;;
48042;SDS011;33988;47.992;8.820;2022-09-27T10:38:35;1.15;;;0.50;;
48042;SDS011;33988;47.992;8.820;2022-09-27T10:41:45;0.50;;;0.50;;
48042;SDS011;33988;47.992;8.820;2022-09-27T10:46:41;0.65;;;0.63;;
48042;SDS011;33988;47.992;8.820;2022-09-27T10:49:17;0.60;;;0.60;;
48042;SDS011;33988;47.992;8.820;2022-09-27T10:51:52;0.90;;;0.60;;
48042;SDS011;33988;47.992;8.820;2022-09-27T10:54:36;2.55;;;0.70;;
48042;SDS011;33988;47.992;8.820;2022-09-27T10:59:40;1.45;;;0.70;;
48042;SDS011;33988;47.992;8.820;2022-09-27T11:02:21;1.80;;;0.60;;
48042;SDS011;33988;47.992;8.820;2022-09-27T11:08:23;0.50;;;0.50;;
48042;SDS011;33988;47.992;8.820;2022-09-27T11:13:58;0.63;;;0.47;;
48042;SDS011;33988;47.992;8.820;2022-09-27T11:25:28;0.10;;;0.10;;
48042;SDS011;33988;47.992;8.820;2022-09-27T11:59:33;0.40;;;0.30;;
48042;SDS011;33988;47.992;8.820;2022-09-27T12:11:04;0.50;;;0.50;;
48042;SDS011;33988;47.992;8.820;2022-09-27T12:16:52;0.77;;;0.40;;
48042;SDS011;33988;47.992;8.820;2022-09-27T12:19:35;1.25;;;0.45;;
48042;SDS011;33988;47.992;8.820;2022-09-27T12:22:10;1.60;;;0.30;;
48042;SDS011;33988;47.992;8.820;2022-09-27T12:24:41;4.00;;;0.68;;
48042;SDS011;33988;47.992;8.820;2022-09-27T12:27:26;0.88;;;0.38;;
48042;SDS011;33988;47.992;8.820;2022-09-27T12:30:23;0.50;;;0.40;;
48042;SDS011;33988;47.992;8.820;2022-09-27T12:33:03;0.95;;;0.40;;
48042;SDS011;33988;47.992;8.820;2022-09-27T12:35:53;0.68;;;0.20;;
48042;SDS011;33988;47.992;8.820;2022-09-27T12:41:10;0.30;;;0.30;;
48042;SDS011;33988;47.992;8.820;2022-09-27T12:43:43;0.40;;;0.30;;
48042;SDS011;33988;47.992;8.820;2022-09-27T12:49:18;1.55;;;0.50;;
48042;SDS011;33988;47.992;8.820;2022-09-27T12:52:30;0.47;;;0.40;;
48042;SDS011;33988;47.992;8.820;2022-09-27T13:01:08;0.40;;;0.30;;
48042;SDS011;33988;47.992;8.820;2022-09-27T13:16:06;0.75;;;0.30;;
48042;SDS011;33988;47.992;8.820;2022-09-27T13:21:52;0.68;;;0.35;;
48042;SDS011;33988;47.992;8.820;2022-09-27T13:32:38;0.40;;;0.40;;
48042;SDS011;33988;47.992;8.820;2022-09-27T13:35:10;1.02;;;0.45;;
48042;SDS011;33988;47.992;8.820;2022-09-27T13:40:29;1.88;;;0.50;;
48042;SDS011;33988;47.992;8.820;2022-09-27T13:43:09;1.10;;;0.47;;
48042;SDS011;33988;47.992;8.820;2022-09-27T13:48:23;0.40;;;0.40;;
48042;SDS011;33988;47.992;8.820;2022-09-27T13:51:02;0.73;;;0.40;;
48042;SDS011;33988;47.992;8.820;2022-09-27T13:53:55;0.50;;;0.50;;
48042;SDS011;33988;47.992;8.820;2022-09-27T14:02:18;0.50;;;0.45;;
48042;SDS011;33988;47.992;8.820;2022-09-27T14:04:55;1.52;;;0.68;;
48042;SDS011;33988;47.992;8.820;2022-09-27T14:07:28;2.10;;;0.90;;
48042;SDS011;33988;47.992;8.820;2022-09-27T14:10:13;0.90;;;0.60;;
48042;SDS011;33988;47.992;8.820;2022-09-27T14:12:48;0.43;;;0.43;;
48042;SDS011;33988;47.992;8.820;2022-09-27T14:15:27;0.85;;;0.50;;
48042;SDS011;33988;47.992;8.820;2022-09-27T14:17:59;0.88;;;0.35;;
48042;SDS011;33988;47.992;8.820;2022-09-27T14:20:33;3.40;;;0.68;;
48042;SDS011;33988;47.992;8.820;2022-09-27T14:23:18;0.60;;;0.45;;
48042;SDS011;33988;47.992;8.820;2022-09-27T14:28:22;0.82;;;0.50;;
48042;SDS011;33988;47.992;8.820;2022-09-27T14:31:09;0.38;;;0.35;;
48042;SDS011;33988;47.992;8.820;2022-09-27T14:33:44;0.40;;;0.40;;
48042;SDS011;33988;47.992;8.820;2022-09-27T14:36:28;0.60;;;0.60;;
48042;SDS011;33988;47.992;8.820;2022-09-27T14:39:29;0.77;;;0.63;;
48042;SDS011;33988;47.992;8.820;2022-09-27T14:42:04;0.65;;;0.65;;
48042;SDS011;33988;47.992;8.820;2022-09-27T14:44:47;0.55;;;0.50;;
48042;SDS011;33988;47.992;8.820;2022-09-27T14:49:51;1.05;;;0.68;;
48042;SDS011;33988;47.992;8.820;2022-09-27T14:52:27;1.13;;;0.65;;
48042;SDS011;33988;47.992;8.820;2022-09-27T14:57:32;1.27;;;0.70;;
48042;SDS011;33988;47.992;8.820;2022-09-27T15:00:20;1.17;;;1.00;;
48042;SDS011;33988;47.992;8.820;2022-09-27T15:03:00;1.50;;;0.88;;
48042;SDS011;33988;47.992;8.820;2022-09-27T15:05:31;0.60;;;0.60;;
48042;SDS011;33988;47.992;8.820;2022-09-27T15:08:02;0.65;;;0.63;;
48042;SDS011;33988;47.992;8.820;2022-09-27T15:10:33;0.80;;;0.80;;
48042;SDS011;33988;47.992;8.820;2022-09-27T15:13:01;0.80;;;0.70;;
48042;SDS011;33988;47.992;8.820;2022-09-27T15:15:35;2.40;;;1.88;;
48042;SDS011;33988;47.992;8.820;2022-09-27T15:20:56;2.78;;;1.70;;
48042;SDS011;33988;47.992;8.820;2022-09-27T15:23:33;2.10;;;1.27;;
48042;SDS011;33988;47.992;8.820;2022-09-27T15:26:07;1.00;;;0.90;;
48042;SDS011;33988;47.992;8.820;2022-09-27T15:28:43;0.60;;;0.60;;
48042;SDS011;33988;47.992;8.820;2022-09-27T15:31:13;1.70;;;1.10;;
48042;SDS011;33988;47.992;8.820;2022-09-27T15:33:41;1.55;;;0.73;;
48042;SDS011;33988;47.992;8.820;2022-09-27T15:36:37;1.20;;;0.65;;
48042;SDS011;33988;47.992;8.820;2022-09-27T15:39:24;0.88;;;0.80;;
48042;SDS011;33988;47.992;8.820;2022-09-27T15:42:13;1.13;;;0.77;;
48042;SDS011;33988;47.992;8.820;2022-09-27T15:44:46;0.50;;;0.50;;
48042;SDS011;33988;47.992;8.820;2022-09-27T15:49:57;0.20;;;0.20;;
48042;SDS011;33988;47.992;8.820;2022-09-27T15:52:42;0.40;;;0.40;;
48042;SDS011;33988;47.992;8.820;2022-09-27T15:55:16;1.15;;;0.40;;
48042;SDS011;33988;47.992;8.820;2022-09-27T15:57:52;0.40;;;0.40;;
48042;SDS011;33988;47.992;8.820;2022-09-27T16:00:25;0.60;;;0.60;;
48042;SDS011;33988;47.992;8.820;2022-09-27T16:02:54;2.85;;;1.00;;
48042;SDS011;33988;47.992;8.820;2022-09-27T16:05:22;1.63;;;1.50;;
48042;SDS011;33988;47.992;8.820;2022-09-27T16:07:49;0.95;;;0.75;;
48042;SDS011;33988;47.992;8.820;2022-09-27T16:10:18;1.30;;;1.00;;
48042;SDS011;33988;47.992;8.820;2022-09-27T16:12:48;2.10;;;1.38;;
48042;SDS011;33988;47.992;8.820;2022-09-27T16:15:18;1.10;;;1.00;;
48042;SDS011;33988;47.992;8.820;2022-09-27T16:17:48;3.50;;;2.20;;
48042;SDS011;33988;47.992;8.820;2022-09-27T16:20:19;1.30;;;1.20;;
48042;SDS011;33988;47.992;8.820;2022-09-27T16:22:52;1.98;;;1.38;;
48042;SDS011;33988;47.992;8.820;2022-09-27T16:25:20;1.70;;;0.95;;
48042;SDS011;33988;47.992;8.820;2022-09-27T16:27:50;1.85;;;1.23;;
48042;SDS011;33988;47.992;8.820;2022-09-27T16:33:47;1.05;;;0.93;;
48042;SDS011;33988;47.992;8.820;2022-09-27T16:36:19;2.33;;;1.23;;
48042;SDS011;33988;47.992;8.820;2022-09-27T16:38:49;2.28;;;1.65;;
48042;SDS011;33988;47.992;8.820;2022-09-27T16:41:20;3.88;;;2.53;;
48042;SDS011;33988;47.992;8.820;2022-09-27T16:43:48;3.15;;;1.95;;
48042;SDS011;33988;47.992;8.820;2022-09-27T16:46:15;2.95;;;2.20;;
48042;SDS011;33988;47.992;8.820;2022-09-27T16:48:45;4.50;;;2.67;;
48042;SDS011;33988;47.992;8.820;2022-09-27T16:51:16;3.42;;;2.20;;
48042;SDS011;33988;47.992;8.820;2022-09-27T16:54:05;3.92;;;2.50;;
48042;SDS011;33988;47.992;8.820;2022-09-27T16:56:35;2.70;;;2.13;;
48042;SDS011;33988;47.992;8.820;2022-09-27T16:59:02;5.28;;;2.38;;
48042;SDS011;33988;47.992;8.820;2022-09-27T17:01:32;2.42;;;1.90;;
48042;SDS011;33988;47.992;8.820;2022-09-27T17:04:00;2.47;;;1.85;;
48042;SDS011;33988;47.992;8.820;2022-09-27T17:06:32;1.08;;;1.00;;
48042;SDS011;33988;47.992;8.820;2022-09-27T17:09:02;1.50;;;1.20;;
48042;SDS011;33988;47.992;8.820;2022-09-27T17:11:30;2.08;;;1.40;;
48042;SDS011;33988;47.992;8.820;2022-09-27T17:13:58;2.10;;;1.40;;
48042;SDS011;33988;47.992;8.820;2022-09-27T17:16:27;3.08;;;1.95;;
48042;SDS011;33988;47.992;8.820;2022-09-27T17:18:54;3.50;;;2.70;;
48042;SDS011;33988;47.992;8.820;2022-09-27T17:21:24;3.38;;;2.35;;
48042;SDS011;33988;47.992;8.820;2022-09-27T17:23:54;1.70;;;1.50;;
48042;SDS011;33988;47.992;8.820;2022-09-27T17:26:22;1.77;;;1.38;;
48042;SDS011;33988;47.992;8.820;2022-09-27T17:29:13;3.28;;;1.95;;
48042;SDS011;33988;47.992;8.820;2022-09-27T17:31:43;3.60;;;1.98;;
48042;SDS011;33988;47.992;8.820;2022-09-27T17:34:12;2.55;;;1.95;;
48042;SDS011;33988;47.992;8.820;2022-09-27T17:36:43;2.20;;;1.40;;
48042;SDS011;33988;47.992;8.820;2022-09-27T17:39:35;2.83;;;1.10;;
48042;SDS011;33988;47.992;8.820;2022-09-27T17:42:05;1.42;;;1.20;;
48042;SDS011;33988;47.992;8.820;2022-09-27T17:44:32;1.30;;;0.95;;
48042;SDS011;33988;47.992;8.820;2022-09-27T17:47:02;1.55;;;1.33;;
48042;SDS011;33988;47.992;8.820;2022-09-27T17:49:47;2.17;;;1.23;;
48042;SDS011;33988;47.992;8.820;2022-09-27T17:52:32;2.50;;;2.00;;
48042;SDS011;33988;47.992;8.820;2022-09-27T17:55:00;2.00;;;1.55;;
48042;SDS011;33988;47.992;8.820;2022-09-27T17:57:28;2.45;;;1.83;;
48042;SDS011;33988;47.992;8.820;2022-09-27T17:59:57;1.98;;;1.40;;
48042;SDS011;33988;47.992;8.820;2022-09-27T18:02:27;1.52;;;1.20;;
48042;SDS011;33988;47.992;8.820;2022-09-27T18:04:54;2.70;;;1.50;;
48042;SDS011;33988;47.992;8.820;2022-09-27T18:07:23;2.03;;;1.35;;
48042;SDS011;33988;47.992;8.820;2022-09-27T18:09:55;2.70;;;1.23;;
48042;SDS011;33988;47.992;8.820;2022-09-27T18:12:22;1.77;;;1.13;;
48042;SDS011;33988;47.992;8.820;2022-09-27T18:14:57;1.20;;;0.90;;
48042;SDS011;33988;47.992;8.820;2022-09-27T18:17:29;1.67;;;0.90;;
48042;SDS011;33988;47.992;8.820;2022-09-27T18:19:56;1.10;;;1.00;;
48042;SDS011;33988;47.992;8.820;2022-09-27T18:22:27;1.83;;;1.03;;
48042;SDS011;33988;47.992;8.820;2022-09-27T18:25:02;2.08;;;1.10;;
48042;SDS011;33988;47.992;8.820;2022-09-27T18:27:30;3.50;;;1.70;;
48042;SDS011;33988;47.992;8.820;2022-09-27T18:29:59;5.18;;;2.38;;
48042;SDS011;33988;47.992;8.820;2022-09-27T18:32:28;5.03;;;2.63;;
48042;SDS011;33988;47.992;8.820;2022-09-27T18:34:57;4.30;;;2.08;;
48042;SDS011;33988;47.992;8.820;2022-09-27T18:37:24;1.95;;;1.52;;
48042;SDS011;33988;47.992;8.820;2022-09-27T18:39:54;1.70;;;1.30;;
48042;SDS011;33988;47.992;8.820;2022-09-27T18:42:23;2.13;;;1.00;;
48042;SDS011;33988;47.992;8.820;2022-09-27T18:44:50;1.10;;;0.70;;
48042;SDS011;33988;47.992;8.820;2022-09-27T18:47:17;1.00;;;0.90;;
48042;SDS011;33988;47.992;8.820;2022-09-27T18:49:44;1.20;;;0.80;;
48042;SDS011;33988;47.992;8.820;2022-09-27T18:52:14;1.38;;;0.88;;
48042;SDS011;33988;47.992;8.820;2022-09-27T18:54:43;2.80;;;1.13;;
48042;SDS011;33988;47.992;8.820;2022-09-27T18:57:14;1.83;;;1.58;;
48042;SDS011;33988;47.992;8.820;2022-09-27T18:59:41;3.17;;;1.65;;
48042;SDS011;33988;47.992;8.820;2022-09-27T19:02:08;2.45;;;1.40;;
48042;SDS011;33988;47.992;8.820;2022-09-27T19:04:38;3.42;;;1.80;;
48042;SDS011;33988;47.992;8.820;2022-09-27T19:07:05;1.85;;;1.15;;
48042;SDS011;33988;47.992;8.820;2022-09-27T19:09:33;1.77;;;1.10;;
48042;SDS011;33988;47.992;8.820;2022-09-27T19:12:01;1.42;;;1.00;;